createdAt,value
2018-05-29T00:00:07.844Z,100855.35
2018-05-29T00:05:02.568Z,100859.10
2018-05-29T00:09:57.254Z,100866.30
2018-05-29T00:14:51.800Z,100860.25
2018-05-29T00:19:46.180Z,100856.72
2018-05-29T00:24:40.613Z,100863.50
2018-05-29T00:29:35.069Z,100861.77
2018-05-29T00:34:29.492Z,100853.95
2018-05-29T00:39:23.864Z,100856.50
2018-05-29T00:44:19.158Z,100854.17
2018-05-29T00:49:15.083Z,100854.11
2018-05-29T00:54:09.905Z,100853.48
2018-05-29T00:59:04.303Z,100851.39
2018-05-29T01:03:58.939Z,100844.30
2018-05-29T01:08:53.341Z,100835.72
2018-05-29T01:13:48.516Z,100840.55
2018-05-29T01:18:42.873Z,100838.05
2018-05-29T01:23:38.033Z,100844.17
2018-05-29T01:28:32.403Z,100840.23
2018-05-29T01:33:27.775Z,100835.89
2018-05-29T01:38:22.199Z,100831.77
2018-05-29T01:43:16.721Z,100833.52
2018-05-29T01:48:11.898Z,100833.06
2018-05-29T01:53:06.255Z,100832.23
2018-05-29T01:58:01.607Z,100828.57
2018-05-29T02:02:56.636Z,100825.67
2018-05-29T02:07:51.072Z,100816.07
2018-05-29T02:12:45.543Z,100813.66
2018-05-29T02:17:39.946Z,100807.81
2018-05-29T02:22:34.314Z,100796.13
2018-05-29T02:27:29.490Z,100803.84
2018-05-29T02:32:23.895Z,100802.95
2018-05-29T02:37:18.267Z,100799.70
2018-05-29T02:42:12.719Z,100794.69
2018-05-29T02:47:07.105Z,100788.57
2018-05-29T02:52:01.782Z,100787.31
2018-05-29T02:56:56.342Z,100784.98
2018-05-29T03:01:51.464Z,100789.14
2018-05-29T03:06:45.850Z,100782.77
2018-05-29T03:11:40.204Z,100780.20
2018-05-29T03:16:34.666Z,100775.33
2018-05-29T03:21:29.052Z,100781.92
2018-05-29T03:26:23.634Z,100787.45
2018-05-29T03:31:18.949Z,100783.36
2018-05-29T03:36:14.289Z,100782.02
2018-05-29T03:41:09.758Z,100789.80
2018-05-29T03:46:04.152Z,100801.80
2018-05-29T03:50:58.566Z,100805.34
2018-05-29T03:55:52.999Z,100803.77
2018-05-29T04:00:47.555Z,100801.05
2018-05-29T04:05:41.957Z,100814.88
2018-05-29T04:10:36.303Z,100828.05
2018-05-29T04:15:31.456Z,100818.13
2018-05-29T04:20:25.853Z,100820.00
2018-05-29T04:25:20.237Z,100833.28
2018-05-29T04:30:16.352Z,100824.75
2018-05-29T04:35:10.719Z,100834.94
2018-05-29T04:40:05.089Z,100840.50
2018-05-29T04:45:00.235Z,100831.77
2018-05-29T04:49:54.627Z,100837.48
2018-05-29T04:54:49.020Z,100839.22
2018-05-29T04:59:43.381Z,100836.59
2018-05-29T05:04:38.003Z,100829.53
2018-05-29T05:09:32.491Z,100827.48
2018-05-29T05:14:26.834Z,100817.00
2018-05-29T05:19:22.193Z,100803.22
2018-05-29T05:24:16.629Z,100806.52
2018-05-29T05:29:11.023Z,100804.03
2018-05-29T05:34:05.711Z,100804.16
2018-05-29T05:39:00.384Z,100802.17
2018-05-29T05:43:55.046Z,100793.75
2018-05-29T05:48:49.704Z,100789.37
2018-05-29T05:53:44.373Z,100786.06
2018-05-29T05:58:39.058Z,100789.59
2018-05-29T06:03:34.467Z,100790.27
2018-05-29T06:08:29.420Z,100786.14
2018-05-29T06:13:24.143Z,100787.39
2018-05-29T06:18:18.815Z,100789.93
2018-05-29T06:23:14.213Z,100789.66
2018-05-29T06:28:08.904Z,100791.22
2018-05-29T06:33:03.536Z,100788.89
2018-05-29T06:38:00.951Z,100799.84
2018-05-29T06:42:55.618Z,100799.42
2018-05-29T06:47:50.267Z,100798.86
2018-05-29T06:52:45.197Z,100802.52
2018-05-29T06:57:39.854Z,100804.20
2018-05-29T07:02:34.480Z,100802.64
2018-05-29T07:07:29.124Z,100795.34
2018-05-29T07:12:23.764Z,100791.51
2018-05-29T07:17:18.401Z,100786.02
2018-05-29T07:22:13.337Z,100795.63
2018-05-29T07:27:09.338Z,100790.77
2018-05-29T07:32:04.305Z,100788.80
2018-05-29T07:36:58.995Z,100781.00
2018-05-29T07:41:54.396Z,100782.27
2018-05-29T07:46:49.043Z,100773.34
2018-05-29T07:51:44.488Z,100765.89
2018-05-29T07:56:39.120Z,100757.33
2018-05-29T08:01:33.749Z,100756.37
2018-05-29T08:06:28.454Z,100749.05
2018-05-29T08:11:23.238Z,100752.37
2018-05-29T08:16:17.927Z,100740.47
2018-05-29T08:21:12.660Z,100737.31
2018-05-29T08:26:07.301Z,100731.44
2018-05-29T08:31:02.124Z,100728.13
2018-05-29T08:35:57.069Z,100719.33
2018-05-29T08:40:52.462Z,100713.53
2018-05-29T08:45:48.093Z,100717.52
2018-05-29T08:50:42.740Z,100714.73
2018-05-29T08:55:37.418Z,100709.16
2018-05-29T09:00:32.117Z,100702.85
2018-05-29T09:05:26.750Z,100695.05
2018-05-29T09:10:21.504Z,100696.47
2018-05-29T09:15:17.925Z,100688.91
2018-05-29T09:20:13.307Z,100694.58
2018-05-29T09:25:07.931Z,100682.52
2018-05-29T09:30:02.620Z,100679.33
2018-05-29T09:34:57.494Z,100673.28
2018-05-29T09:39:52.122Z,100666.78
2018-05-29T09:44:46.895Z,100657.48
2018-05-29T09:49:41.850Z,100651.86
2018-05-29T09:54:36.526Z,100645.12
2018-05-29T09:59:31.978Z,100640.66
2018-05-29T10:04:26.772Z,100638.13
2018-05-29T10:09:21.488Z,100635.46
2018-05-29T10:14:16.338Z,100639.67
2018-05-29T10:19:10.980Z,100639.42
2018-05-29T10:24:05.612Z,100629.96
2018-05-29T10:29:00.314Z,100627.95
2018-05-29T10:33:56.082Z,100622.76
2018-05-29T10:38:50.694Z,100628.34
2018-05-29T10:43:45.087Z,100623.56
2018-05-29T10:48:39.710Z,100624.17
2018-05-29T10:53:34.353Z,100617.75
2018-05-29T10:58:29.014Z,100610.86
2018-05-29T11:03:23.693Z,100616.08
2018-05-29T11:08:19.102Z,100603.77
2018-05-29T11:13:14.503Z,100603.72
2018-05-29T11:18:09.186Z,100604.83
2018-05-29T11:23:04.133Z,100594.05
2018-05-29T11:27:58.905Z,100585.11
2018-05-29T11:32:53.583Z,100578.73
2018-05-29T11:37:48.225Z,100573.88
2018-05-29T11:42:43.063Z,100559.23
2018-05-29T11:47:37.711Z,100555.97
2018-05-29T11:52:32.353Z,100543.91
2018-05-29T11:57:26.993Z,100540.89
2018-05-29T12:02:21.396Z,100523.14
2018-05-29T12:07:16.041Z,100517.96
2018-05-29T12:12:25.809Z,100504.41
2018-05-29T12:17:20.776Z,100498.84
2018-05-29T12:22:15.411Z,100509.03
2018-05-29T12:27:10.070Z,100513.62
2018-05-29T12:32:05.469Z,100522.23
2018-05-29T12:37:00.139Z,100529.55
2018-05-29T12:41:54.961Z,100536.87
2018-05-29T12:46:49.852Z,100527.41
2018-05-29T12:51:44.628Z,100506.81
2018-05-29T12:56:39.354Z,100505.64
2018-05-29T13:01:34.765Z,100505.45
2018-05-29T13:06:30.252Z,100503.69
2018-05-29T13:11:25.065Z,100499.42
2018-05-29T13:16:19.709Z,100488.47
2018-05-29T13:21:14.365Z,100496.16
2018-05-29T13:26:08.999Z,100503.53
2018-05-29T13:31:03.808Z,100476.95
2018-05-29T13:35:58.919Z,100459.13
2018-05-29T13:40:53.900Z,100492.09
2018-05-29T13:45:48.609Z,100513.80
2018-05-29T13:50:43.673Z,100530.84
2018-05-29T13:55:38.426Z,100591.59
2018-05-29T14:00:33.331Z,100629.33
2018-05-29T14:05:28.986Z,100612.50
2018-05-29T14:10:24.458Z,100606.14
2018-05-29T14:15:19.154Z,100625.57
2018-05-29T14:20:13.528Z,100639.41
2018-05-29T14:25:07.896Z,100641.88
2018-05-29T14:30:03.048Z,100637.73
2018-05-29T14:34:57.424Z,100631.30
2018-05-29T14:39:52.090Z,100618.40
2018-05-29T14:44:48.217Z,100620.20
2018-05-29T14:49:42.586Z,100617.23
2018-05-29T14:54:37.889Z,100621.14
2018-05-29T14:59:33.055Z,100624.73
2018-05-29T15:04:28.461Z,100621.89
2018-05-29T15:09:22.892Z,100613.25
2018-05-29T15:14:17.981Z,100603.53
2018-05-29T15:19:12.911Z,100606.18
2018-05-29T15:24:07.425Z,100605.39
2018-05-29T15:29:01.843Z,100623.33
2018-05-29T15:33:55.996Z,100628.12
2018-05-29T15:38:50.768Z,100655.91
2018-05-29T15:43:45.378Z,100673.25
2018-05-29T15:48:39.782Z,100674.28
2018-05-29T15:53:34.158Z,100683.50
2018-05-29T15:58:28.526Z,100698.22
2018-05-29T16:03:23.661Z,100704.00
2018-05-29T16:08:18.106Z,100687.34
2018-05-29T16:13:12.946Z,100662.03
2018-05-29T16:18:08.090Z,100658.91
2018-05-29T16:23:02.556Z,100680.08
2018-05-29T16:27:57.331Z,100677.91
2018-05-29T16:32:52.569Z,100696.87
2018-05-29T16:37:46.974Z,100720.23
2018-05-29T16:42:42.313Z,100712.66
2018-05-29T16:47:36.948Z,100701.25
2018-05-29T16:52:32.184Z,100672.36
2018-05-29T16:57:28.688Z,100648.13
2018-05-29T17:02:23.629Z,100628.02
2018-05-29T17:07:18.848Z,100584.39
2018-05-29T17:12:14.061Z,100560.09
2018-05-29T17:17:08.675Z,100548.77
2018-05-29T17:22:03.580Z,100554.67
2018-05-29T17:26:58.165Z,100556.70
2018-05-29T17:31:53.202Z,100568.34
2018-05-29T17:36:48.136Z,100568.00
2018-05-29T17:41:43.425Z,100584.44
2018-05-29T17:46:37.856Z,100597.41
2018-05-29T17:51:32.395Z,100584.95
2018-05-29T17:56:26.949Z,100595.44
2018-05-29T18:01:21.470Z,100600.53
2018-05-29T18:06:15.845Z,100615.08
2018-05-29T18:11:10.471Z,100620.23
2018-05-29T18:16:04.914Z,100620.48
2018-05-29T18:26:55.585Z,100631.41
2018-05-29T18:32:03.431Z,100649.84
2018-05-29T18:37:00.025Z,100662.38
2018-05-29T18:41:57.327Z,100664.09
2018-05-29T18:46:52.184Z,100679.48
2018-05-29T18:51:50.485Z,100686.14
2018-05-29T18:56:45.026Z,100688.52
2018-05-29T19:01:40.198Z,100697.34
2018-05-29T19:06:34.682Z,100707.36
2018-05-29T19:11:29.053Z,100712.73
2018-05-29T19:16:24.309Z,100725.50
2018-05-29T19:21:18.996Z,100733.14
2018-05-29T19:26:14.153Z,100730.34
2018-05-29T19:31:08.558Z,100744.06
2018-05-29T19:36:03.735Z,100754.47
2018-05-29T19:40:58.887Z,100751.67
2018-05-29T19:45:53.274Z,100764.59
2018-05-29T19:50:48.413Z,100774.29
2018-05-29T19:55:42.799Z,100779.96
2018-05-29T20:00:37.951Z,100778.35
2018-05-29T20:05:32.349Z,100765.70
2018-05-29T20:10:26.800Z,100765.08
2018-05-29T20:15:21.409Z,100762.81
2018-05-29T20:20:15.858Z,100751.33
2018-05-29T20:25:10.820Z,100742.80
2018-05-29T20:30:04.512Z,100737.33
2018-05-29T20:34:59.014Z,100733.95
2018-05-29T20:39:53.408Z,100734.44
2018-05-29T20:44:48.064Z,100727.94
2018-05-29T20:49:42.669Z,100726.88
2018-05-29T20:54:37.114Z,100727.67
2018-05-29T20:59:31.856Z,100720.48
2018-05-29T21:04:26.265Z,100707.03
2018-05-29T21:09:21.063Z,100711.70
2018-05-29T21:14:16.359Z,100700.49
2018-05-29T21:19:10.828Z,100688.78
2018-05-29T21:24:05.289Z,100688.45
2018-05-29T21:28:59.648Z,100702.91
2018-05-29T21:33:54.381Z,100707.21
2018-05-29T21:38:48.818Z,100708.80
2018-05-29T21:43:43.377Z,100715.23
2018-05-29T21:48:37.756Z,100720.69
2018-05-29T21:53:33.006Z,100728.56
2018-05-29T21:58:27.388Z,100723.06
2018-05-29T22:03:22.540Z,100734.77
2018-05-29T22:08:16.921Z,100740.70
2018-05-29T22:13:11.733Z,100743.98
2018-05-29T22:18:06.307Z,100741.89
2018-05-29T22:23:01.766Z,100743.94
2018-05-29T22:27:57.093Z,100747.46
2018-05-29T22:32:52.321Z,100750.95
2018-05-29T22:37:46.771Z,100745.40
2018-05-29T22:42:42.683Z,100746.05
2018-05-29T22:47:37.080Z,100734.58
2018-05-29T22:52:33.621Z,100746.69
2018-05-29T22:57:29.049Z,100741.94
2018-05-29T23:02:23.508Z,100744.63
2018-05-29T23:07:18.043Z,100749.58
2018-05-29T23:12:13.226Z,100750.52
2018-05-29T23:17:07.822Z,100758.51
2018-05-29T23:22:02.460Z,100769.17
2018-05-29T23:26:57.720Z,100772.23
2018-05-29T23:31:52.145Z,100766.12
2018-05-29T23:36:47.400Z,100767.25
2018-05-29T23:41:42.307Z,100770.84
2018-05-29T23:46:36.851Z,100759.42
2018-05-29T23:51:31.991Z,100763.84
2018-05-29T23:56:26.350Z,100754.05
